sensor_id;sensor_type;location;lat;lon;timestamp;P1;durP1;ratioP1;P2;durP2;ratioP2
50739;SDS011;36704;52.524;17.580;2022-07-01T00:00:05;32.05;;;28.60;;
50739;SDS011;36704;52.524;17.580;2022-07-01T00:03:03;33.33;;;29.15;;
50739;SDS011;36704;52.524;17.580;2022-07-01T00:05:55;35.78;;;30.27;;
50739;SDS011;36704;52.524;17.580;2022-07-01T00:08:43;38.28;;;29.15;;
50739;SDS011;36704;52.524;17.580;2022-07-01T00:11:30;33.30;;;28.90;;
50739;SDS011;36704;52.524;17.580;2022-07-01T00:14:17;33.72;;;27.65;;
50739;SDS011;36704;52.524;17.580;2022-07-01T00:17:10;34.05;;;29.17;;
50739;SDS011;36704;52.524;17.580;2022-07-01T00:20:00;31.45;;;26.85;;
50739;SDS011;36704;52.524;17.580;2022-07-01T00:22:50;29.08;;;25.92;;
50739;SDS011;36704;52.524;17.580;2022-07-01T00:25:38;39.88;;;30.80;;
50739;SDS011;36704;52.524;17.580;2022-07-01T00:28:24;31.25;;;27.10;;
50739;SDS011;36704;52.524;17.580;2022-07-01T00:31:17;36.60;;;29.00;;
50739;SDS011;36704;52.524;17.580;2022-07-01T00:34:06;36.50;;;27.73;;
50739;SDS011;36704;52.524;17.580;2022-07-01T00:36:53;38.53;;;28.83;;
50739;SDS011;36704;52.524;17.580;2022-07-01T00:39:39;31.50;;;27.48;;
50739;SDS011;36704;52.524;17.580;2022-07-01T00:42:27;32.70;;;27.08;;
50739;SDS011;36704;52.524;17.580;2022-07-01T00:45:17;32.97;;;28.17;;
50739;SDS011;36704;52.524;17.580;2022-07-01T00:48:04;34.17;;;25.40;;
50739;SDS011;36704;52.524;17.580;2022-07-01T00:50:57;30.98;;;24.83;;
50739;SDS011;36704;52.524;17.580;2022-07-01T00:53:47;29.70;;;23.58;;
50739;SDS011;36704;52.524;17.580;2022-07-01T00:56:37;28.98;;;20.88;;
50739;SDS011;36704;52.524;17.580;2022-07-01T00:59:28;26.55;;;19.45;;
50739;SDS011;36704;52.524;17.580;2022-07-01T01:02:17;24.67;;;18.65;;
50739;SDS011;36704;52.524;17.580;2022-07-01T01:05:07;21.90;;;16.38;;
50739;SDS011;36704;52.524;17.580;2022-07-01T01:07:59;19.80;;;15.65;;
50739;SDS011;36704;52.524;17.580;2022-07-01T01:10:52;17.85;;;14.00;;
50739;SDS011;36704;52.524;17.580;2022-07-01T01:13:41;18.60;;;14.32;;
50739;SDS011;36704;52.524;17.580;2022-07-01T01:16:32;20.92;;;14.45;;
50739;SDS011;36704;52.524;17.580;2022-07-01T01:19:29;28.45;;;16.58;;
50739;SDS011;36704;52.524;17.580;2022-07-01T01:22:21;29.88;;;18.00;;
50739;SDS011;36704;52.524;17.580;2022-07-01T01:25:17;32.78;;;18.40;;
50739;SDS011;36704;52.524;17.580;2022-07-01T01:28:05;30.05;;;16.90;;
50739;SDS011;36704;52.524;17.580;2022-07-01T01:30:53;29.92;;;16.70;;
50739;SDS011;36704;52.524;17.580;2022-07-01T01:33:41;27.98;;;15.75;;
50739;SDS011;36704;52.524;17.580;2022-07-01T01:36:27;20.95;;;14.43;;
50739;SDS011;36704;52.524;17.580;2022-07-01T01:39:14;23.75;;;14.95;;
50739;SDS011;36704;52.524;17.580;2022-07-01T01:42:06;20.13;;;14.13;;
50739;SDS011;36704;52.524;17.580;2022-07-01T01:44:54;23.67;;;15.75;;
50739;SDS011;36704;52.524;17.580;2022-07-01T01:47:41;24.88;;;16.02;;
50739;SDS011;36704;52.524;17.580;2022-07-01T01:50:29;22.15;;;14.30;;
50739;SDS011;36704;52.524;17.580;2022-07-01T01:53:20;16.58;;;14.25;;
50739;SDS011;36704;52.524;17.580;2022-07-01T01:56:09;20.67;;;14.80;;
50739;SDS011;36704;52.524;17.580;2022-07-01T01:58:57;21.90;;;13.95;;
50739;SDS011;36704;52.524;17.580;2022-07-01T02:01:45;19.02;;;13.32;;
50739;SDS011;36704;52.524;17.580;2022-07-01T02:04:51;20.42;;;13.07;;
50739;SDS011;36704;52.524;17.580;2022-07-01T02:07:41;19.42;;;12.57;;
50739;SDS011;36704;52.524;17.580;2022-07-01T02:13:52;20.63;;;12.93;;
50739;SDS011;36704;52.524;17.580;2022-07-01T02:16:53;15.65;;;12.75;;
50739;SDS011;36704;52.524;17.580;2022-07-01T02:19:56;18.42;;;12.73;;
50739;SDS011;36704;52.524;17.580;2022-07-01T02:23:24;18.65;;;12.93;;
50739;SDS011;36704;52.524;17.580;2022-07-01T02:26:30;20.23;;;12.65;;
50739;SDS011;36704;52.524;17.580;2022-07-01T02:29:32;20.02;;;12.52;;
50739;SDS011;36704;52.524;17.580;2022-07-01T02:32:54;15.45;;;12.32;;
50739;SDS011;36704;52.524;17.580;2022-07-01T02:35:58;16.98;;;13.15;;
50739;SDS011;36704;52.524;17.580;2022-07-01T02:39:06;15.20;;;11.85;;
50739;SDS011;36704;52.524;17.580;2022-07-01T02:42:06;18.02;;;12.85;;
50739;SDS011;36704;52.524;17.580;2022-07-01T02:45:37;19.98;;;11.90;;
50739;SDS011;36704;52.524;17.580;2022-07-01T02:48:43;18.58;;;11.80;;
50739;SDS011;36704;52.524;17.580;2022-07-01T02:54:44;17.23;;;13.10;;
50739;SDS011;36704;52.524;17.580;2022-07-01T02:57:45;17.65;;;11.18;;
50739;SDS011;36704;52.524;17.580;2022-07-01T03:00:43;20.13;;;13.05;;
50739;SDS011;36704;52.524;17.580;2022-07-01T03:03:53;36.08;;;16.95;;
50739;SDS011;36704;52.524;17.580;2022-07-01T03:06:57;23.08;;;13.85;;
50739;SDS011;36704;52.524;17.580;2022-07-01T03:09:54;30.35;;;15.93;;
50739;SDS011;36704;52.524;17.580;2022-07-01T03:12:52;22.88;;;13.73;;
50739;SDS011;36704;52.524;17.580;2022-07-01T03:15:45;20.70;;;14.35;;
50739;SDS011;36704;52.524;17.580;2022-07-01T03:18:39;21.52;;;15.68;;
50739;SDS011;36704;52.524;17.580;2022-07-01T03:21:41;23.65;;;16.48;;
50739;SDS011;36704;52.524;17.580;2022-07-01T03:24:39;28.50;;;15.55;;
50739;SDS011;36704;52.524;17.580;2022-07-01T03:27:29;26.10;;;15.00;;
50739;SDS011;36704;52.524;17.580;2022-07-01T03:30:30;21.65;;;13.60;;
50739;SDS011;36704;52.524;17.580;2022-07-01T03:33:21;25.48;;;14.63;;
50739;SDS011;36704;52.524;17.580;2022-07-01T03:36:13;21.20;;;13.43;;
50739;SDS011;36704;52.524;17.580;2022-07-01T03:39:05;20.05;;;13.50;;
50739;SDS011;36704;52.524;17.580;2022-07-01T03:41:55;20.40;;;12.85;;
50739;SDS011;36704;52.524;17.580;2022-07-01T03:44:44;20.08;;;13.10;;
50739;SDS011;36704;52.524;17.580;2022-07-01T03:47:34;20.23;;;13.25;;
50739;SDS011;36704;52.524;17.580;2022-07-01T03:50:41;18.35;;;13.52;;
50739;SDS011;36704;52.524;17.580;2022-07-01T04:00:05;18.20;;;12.40;;
50739;SDS011;36704;52.524;17.580;2022-07-01T04:02:55;12.20;;;10.55;;
50739;SDS011;36704;52.524;17.580;2022-07-01T04:05:46;13.13;;;9.68;;
50739;SDS011;36704;52.524;17.580;2022-07-01T04:08:40;16.52;;;9.38;;
50739;SDS011;36704;52.524;17.580;2022-07-01T04:11:43;14.45;;;8.77;;
50739;SDS011;36704;52.524;17.580;2022-07-01T04:14:35;14.80;;;8.30;;
50739;SDS011;36704;52.524;17.580;2022-07-01T04:17:27;13.35;;;8.60;;
50739;SDS011;36704;52.524;17.580;2022-07-01T04:20:32;9.88;;;8.02;;
50739;SDS011;36704;52.524;17.580;2022-07-01T04:23:25;9.65;;;7.18;;
50739;SDS011;36704;52.524;17.580;2022-07-01T04:26:15;11.57;;;8.05;;
50739;SDS011;36704;52.524;17.580;2022-07-01T04:29:24;12.85;;;8.55;;
50739;SDS011;36704;52.524;17.580;2022-07-01T04:32:22;10.15;;;8.15;;
50739;SDS011;36704;52.524;17.580;2022-07-01T04:35:20;14.38;;;7.80;;
50739;SDS011;36704;52.524;17.580;2022-07-01T04:38:28;10.43;;;7.95;;
50739;SDS011;36704;52.524;17.580;2022-07-01T04:41:23;12.65;;;8.35;;
50739;SDS011;36704;52.524;17.580;2022-07-01T04:44:47;10.85;;;7.97;;
50739;SDS011;36704;52.524;17.580;2022-07-01T04:48:15;12.32;;;7.55;;
50739;SDS011;36704;52.524;17.580;2022-07-01T04:51:09;13.18;;;7.90;;
50739;SDS011;36704;52.524;17.580;2022-07-01T04:53:58;9.38;;;7.40;;
50739;SDS011;36704;52.524;17.580;2022-07-01T04:56:54;10.32;;;6.63;;
50739;SDS011;36704;52.524;17.580;2022-07-01T04:59:47;10.05;;;7.20;;
50739;SDS011;36704;52.524;17.580;2022-07-01T05:02:43;13.18;;;7.25;;
50739;SDS011;36704;52.524;17.580;2022-07-01T05:05:32;8.77;;;6.63;;
50739;SDS011;36704;52.524;17.580;2022-07-01T05:11:24;8.63;;;6.22;;
50739;SDS011;36704;52.524;17.580;2022-07-01T05:14:19;12.85;;;7.50;;
50739;SDS011;36704;52.524;17.580;2022-07-01T05:17:14;12.57;;;6.68;;
50739;SDS011;36704;52.524;17.580;2022-07-01T05:20:09;11.35;;;6.53;;
50739;SDS011;36704;52.524;17.580;2022-07-01T05:23:18;8.95;;;5.82;;
50739;SDS011;36704;52.524;17.580;2022-07-01T05:26:12;14.23;;;6.13;;
50739;SDS011;36704;52.524;17.580;2022-07-01T05:29:14;10.80;;;6.20;;
50739;SDS011;36704;52.524;17.580;2022-07-01T05:32:27;8.98;;;5.28;;
50739;SDS011;36704;52.524;17.580;2022-07-01T05:35:29;8.82;;;5.85;;
50739;SDS011;36704;52.524;17.580;2022-07-01T05:38:29;10.18;;;5.70;;
50739;SDS011;36704;52.524;17.580;2022-07-01T05:41:21;9.00;;;6.40;;
50739;SDS011;36704;52.524;17.580;2022-07-01T05:44:38;9.63;;;5.75;;
50739;SDS011;36704;52.524;17.580;2022-07-01T05:47:35;8.73;;;5.90;;
50739;SDS011;36704;52.524;17.580;2022-07-01T05:50:23;13.70;;;6.68;;
50739;SDS011;36704;52.524;17.580;2022-07-01T05:53:40;12.23;;;6.72;;
50739;SDS011;36704;52.524;17.580;2022-07-01T05:56:44;12.38;;;7.03;;
50739;SDS011;36704;52.524;17.580;2022-07-01T05:59:41;11.35;;;6.60;;
50739;SDS011;36704;52.524;17.580;2022-07-01T06:02:51;11.52;;;6.07;;
50739;SDS011;36704;52.524;17.580;2022-07-01T06:05:52;8.48;;;6.28;;
50739;SDS011;36704;52.524;17.580;2022-07-01T06:08:47;11.95;;;5.80;;
50739;SDS011;36704;52.524;17.580;2022-07-01T06:11:49;8.52;;;6.15;;
50739;SDS011;36704;52.524;17.580;2022-07-01T06:14:49;11.23;;;7.00;;
50739;SDS011;36704;52.524;17.580;2022-07-01T06:17:57;13.30;;;6.65;;
50739;SDS011;36704;52.524;17.580;2022-07-01T06:20:57;9.85;;;6.55;;
50739;SDS011;36704;52.524;17.580;2022-07-01T06:23:53;10.90;;;6.70;;
50739;SDS011;36704;52.524;17.580;2022-07-01T06:26:43;8.15;;;6.65;;
50739;SDS011;36704;52.524;17.580;2022-07-01T06:29:37;11.75;;;6.15;;
50739;SDS011;36704;52.524;17.580;2022-07-01T06:32:53;12.10;;;6.55;;
50739;SDS011;36704;52.524;17.580;2022-07-01T06:35:40;11.20;;;6.88;;
50739;SDS011;36704;52.524;17.580;2022-07-01T06:38:37;11.77;;;6.95;;
50739;SDS011;36704;52.524;17.580;2022-07-01T06:41:32;9.70;;;6.65;;
50739;SDS011;36704;52.524;17.580;2022-07-01T06:44:35;13.23;;;6.90;;
50739;SDS011;36704;52.524;17.580;2022-07-01T06:47:37;10.77;;;7.80;;
50739;SDS011;36704;52.524;17.580;2022-07-01T06:50:40;11.15;;;7.55;;
50739;SDS011;36704;52.524;17.580;2022-07-01T06:53:33;11.43;;;7.13;;
50739;SDS011;36704;52.524;17.580;2022-07-01T06:56:35;12.20;;;7.68;;
50739;SDS011;36704;52.524;17.580;2022-07-01T06:59:31;14.52;;;7.38;;
50739;SDS011;36704;52.524;17.580;2022-07-01T07:02:23;12.52;;;7.47;;
50739;SDS011;36704;52.524;17.580;2022-07-01T07:05:17;11.90;;;7.70;;
50739;SDS011;36704;52.524;17.580;2022-07-01T07:08:28;15.00;;;8.35;;
50739;SDS011;36704;52.524;17.580;2022-07-01T07:11:24;14.07;;;8.00;;
50739;SDS011;36704;52.524;17.580;2022-07-01T07:14:13;11.05;;;7.68;;
50739;SDS011;36704;52.524;17.580;2022-07-01T07:17:13;10.88;;;7.72;;
50739;SDS011;36704;52.524;17.580;2022-07-01T07:20:05;12.00;;;7.93;;
50739;SDS011;36704;52.524;17.580;2022-07-01T07:23:11;11.95;;;8.65;;
50739;SDS011;36704;52.524;17.580;2022-07-01T07:26:16;17.63;;;8.30;;
50739;SDS011;36704;52.524;17.580;2022-07-01T07:29:13;12.23;;;8.07;;
50739;SDS011;36704;52.524;17.580;2022-07-01T07:32:05;14.57;;;9.07;;
50739;SDS011;36704;52.524;17.580;2022-07-01T07:38:09;18.92;;;9.10;;
50739;SDS011;36704;52.524;17.580;2022-07-01T07:41:02;14.88;;;9.25;;
50739;SDS011;36704;52.524;17.580;2022-07-01T07:43:59;10.68;;;8.02;;
50739;SDS011;36704;52.524;17.580;2022-07-01T07:46:52;14.15;;;8.85;;
50739;SDS011;36704;52.524;17.580;2022-07-01T07:49:56;14.55;;;9.10;;
50739;SDS011;36704;52.524;17.580;2022-07-01T07:52:56;13.10;;;8.52;;
50739;SDS011;36704;52.524;17.580;2022-07-01T07:56:13;11.23;;;8.10;;
50739;SDS011;36704;52.524;17.580;2022-07-01T07:59:05;14.02;;;9.05;;
50739;SDS011;36704;52.524;17.580;2022-07-01T08:01:56;16.60;;;9.02;;
50739;SDS011;36704;52.524;17.580;2022-07-01T08:04:54;12.85;;;8.68;;
50739;SDS011;36704;52.524;17.580;2022-07-01T08:07:45;12.23;;;9.20;;
50739;SDS011;36704;52.524;17.580;2022-07-01T08:10:33;13.07;;;9.82;;
50739;SDS011;36704;52.524;17.580;2022-07-01T08:13:36;14.30;;;9.15;;
50739;SDS011;36704;52.524;17.580;2022-07-01T08:16:25;15.90;;;10.50;;
50739;SDS011;36704;52.524;17.580;2022-07-01T08:19:20;15.15;;;9.95;;
50739;SDS011;36704;52.524;17.580;2022-07-01T08:22:24;14.30;;;9.05;;
50739;SDS011;36704;52.524;17.580;2022-07-01T08:25:23;15.80;;;10.30;;
50739;SDS011;36704;52.524;17.580;2022-07-01T08:28:33;17.73;;;9.85;;
50739;SDS011;36704;52.524;17.580;2022-07-01T08:31:22;13.25;;;9.07;;
50739;SDS011;36704;52.524;17.580;2022-07-01T08:34:17;12.75;;;10.18;;
50739;SDS011;36704;52.524;17.580;2022-07-01T08:37:07;13.30;;;9.82;;
50739;SDS011;36704;52.524;17.580;2022-07-01T08:39:58;18.55;;;9.93;;
50739;SDS011;36704;52.524;17.580;2022-07-01T08:42:50;11.73;;;9.60;;
50739;SDS011;36704;52.524;17.580;2022-07-01T08:45:41;12.17;;;10.53;;
50739;SDS011;36704;52.524;17.580;2022-07-01T08:48:33;15.30;;;10.40;;
50739;SDS011;36704;52.524;17.580;2022-07-01T08:52:06;15.70;;;10.85;;
50739;SDS011;36704;52.524;17.580;2022-07-01T08:55:01;15.13;;;10.57;;
50739;SDS011;36704;52.524;17.580;2022-07-01T08:58:00;16.77;;;10.43;;
50739;SDS011;36704;52.524;17.580;2022-07-01T09:01:14;17.02;;;10.50;;
50739;SDS011;36704;52.524;17.580;2022-07-01T09:04:18;13.75;;;10.65;;
50739;SDS011;36704;52.524;17.580;2022-07-01T09:07:16;13.45;;;10.90;;
50739;SDS011;36704;52.524;17.580;2022-07-01T09:10:12;14.70;;;11.13;;
50739;SDS011;36704;52.524;17.580;2022-07-01T09:13:06;17.95;;;10.38;;
50739;SDS011;36704;52.524;17.580;2022-07-01T09:16:15;15.63;;;11.55;;
50739;SDS011;36704;52.524;17.580;2022-07-01T09:19:20;15.63;;;10.83;;
50739;SDS011;36704;52.524;17.580;2022-07-01T09:22:30;14.48;;;11.45;;
50739;SDS011;36704;52.524;17.580;2022-07-01T09:25:33;13.45;;;10.45;;
50739;SDS011;36704;52.524;17.580;2022-07-01T09:28:43;18.70;;;11.77;;
50739;SDS011;36704;52.524;17.580;2022-07-01T09:31:52;16.13;;;11.73;;
50739;SDS011;36704;52.524;17.580;2022-07-01T09:34:51;15.15;;;10.90;;
50739;SDS011;36704;52.524;17.580;2022-07-01T09:37:46;16.98;;;11.60;;
50739;SDS011;36704;52.524;17.580;2022-07-01T09:41:05;16.25;;;11.45;;
50739;SDS011;36704;52.524;17.580;2022-07-01T09:44:21;12.55;;;11.10;;
50739;SDS011;36704;52.524;17.580;2022-07-01T09:50:08;13.43;;;11.40;;
50739;SDS011;36704;52.524;17.580;2022-07-01T09:53:00;13.68;;;11.52;;
50739;SDS011;36704;52.524;17.580;2022-07-01T09:55:51;20.38;;;13.10;;
50739;SDS011;36704;52.524;17.580;2022-07-01T09:58:45;18.00;;;12.40;;
50739;SDS011;36704;52.524;17.580;2022-07-01T10:01:43;14.75;;;12.00;;
50739;SDS011;36704;52.524;17.580;2022-07-01T10:04:42;19.73;;;12.65;;
50739;SDS011;36704;52.524;17.580;2022-07-01T10:14:48;15.65;;;12.07;;
50739;SDS011;36704;52.524;17.580;2022-07-01T10:17:42;14.05;;;11.40;;
50739;SDS011;36704;52.524;17.580;2022-07-01T10:20:36;19.23;;;12.75;;
50739;SDS011;36704;52.524;17.580;2022-07-01T10:23:39;15.95;;;12.15;;
50739;SDS011;36704;52.524;17.580;2022-07-01T10:26:39;16.88;;;13.05;;
50739;SDS011;36704;52.524;17.580;2022-07-01T10:32:26;13.63;;;12.23;;
50739;SDS011;36704;52.524;17.580;2022-07-01T10:35:46;13.98;;;12.23;;
50739;SDS011;36704;52.524;17.580;2022-07-01T10:42:04;17.13;;;12.85;;
50739;SDS011;36704;52.524;17.580;2022-07-01T10:45:11;16.27;;;12.23;;
50739;SDS011;36704;52.524;17.580;2022-07-01T10:48:18;16.42;;;12.07;;
50739;SDS011;36704;52.524;17.580;2022-07-01T10:51:29;13.90;;;12.43;;
50739;SDS011;36704;52.524;17.580;2022-07-01T10:54:45;16.50;;;12.13;;
50739;SDS011;36704;52.524;17.580;2022-07-01T10:57:39;15.27;;;12.38;;
50739;SDS011;36704;52.524;17.580;2022-07-01T11:00:43;16.27;;;11.60;;
50739;SDS011;36704;52.524;17.580;2022-07-01T11:03:35;18.20;;;12.00;;
50739;SDS011;36704;52.524;17.580;2022-07-01T11:06:36;14.15;;;12.55;;
50739;SDS011;36704;52.524;17.580;2022-07-01T11:09:40;13.07;;;11.80;;
50739;SDS011;36704;52.524;17.580;2022-07-01T11:12:37;16.58;;;12.63;;
50739;SDS011;36704;52.524;17.580;2022-07-01T11:15:30;14.07;;;12.43;;
50739;SDS011;36704;52.524;17.580;2022-07-01T11:18:27;16.02;;;11.30;;
50739;SDS011;36704;52.524;17.580;2022-07-01T11:21:33;16.20;;;12.40;;
50739;SDS011;36704;52.524;17.580;2022-07-01T11:24:38;13.82;;;12.07;;
50739;SDS011;36704;52.524;17.580;2022-07-01T11:27:52;14.48;;;12.05;;
50739;SDS011;36704;52.524;17.580;2022-07-01T11:30:46;14.27;;;11.68;;
50739;SDS011;36704;52.524;17.580;2022-07-01T11:33:37;15.38;;;12.00;;
50739;SDS011;36704;52.524;17.580;2022-07-01T11:36:28;14.70;;;12.55;;
50739;SDS011;36704;52.524;17.580;2022-07-01T11:39:34;13.57;;;12.27;;
50739;SDS011;36704;52.524;17.580;2022-07-01T11:42:40;13.10;;;11.77;;
50739;SDS011;36704;52.524;17.580;2022-07-01T11:45:47;13.68;;;12.10;;
50739;SDS011;36704;52.524;17.580;2022-07-01T11:48:46;13.90;;;12.23;;
50739;SDS011;36704;52.524;17.580;2022-07-01T11:51:38;15.70;;;12.07;;
50739;SDS011;36704;52.524;17.580;2022-07-01T11:54:29;15.95;;;12.27;;
50739;SDS011;36704;52.524;17.580;2022-07-01T11:57:29;18.83;;;13.20;;
50739;SDS011;36704;52.524;17.580;2022-07-01T12:01:04;14.93;;;12.75;;
50739;SDS011;36704;52.524;17.580;2022-07-01T12:05:14;16.67;;;11.70;;
50739;SDS011;36704;52.524;17.580;2022-07-01T12:08:01;13.57;;;11.98;;
50739;SDS011;36704;52.524;17.580;2022-07-01T12:10:56;17.88;;;12.73;;
50739;SDS011;36704;52.524;17.580;2022-07-01T12:13:52;14.68;;;11.90;;
50739;SDS011;36704;52.524;17.580;2022-07-01T12:16:58;13.48;;;11.90;;
50739;SDS011;36704;52.524;17.580;2022-07-01T12:19:50;16.30;;;12.18;;
50739;SDS011;36704;52.524;17.580;2022-07-01T12:22:47;15.10;;;12.10;;
50739;SDS011;36704;52.524;17.580;2022-07-01T12:25:34;15.02;;;12.23;;
50739;SDS011;36704;52.524;17.580;2022-07-01T12:28:59;15.65;;;11.52;;
50739;SDS011;36704;52.524;17.580;2022-07-01T12:31:55;17.67;;;12.10;;
50739;SDS011;36704;52.524;17.580;2022-07-01T12:34:57;14.85;;;11.13;;
50739;SDS011;36704;52.524;17.580;2022-07-01T12:38:14;13.82;;;12.32;;
50739;SDS011;36704;52.524;17.580;2022-07-01T12:41:27;17.15;;;12.00;;
50739;SDS011;36704;52.524;17.580;2022-07-01T12:44:25;16.13;;;11.45;;
50739;SDS011;36704;52.524;17.580;2022-07-01T12:50:26;13.75;;;11.23;;
50739;SDS011;36704;52.524;17.580;2022-07-01T12:53:20;13.07;;;11.05;;
50739;SDS011;36704;52.524;17.580;2022-07-01T12:56:20;17.88;;;11.95;;
50739;SDS011;36704;52.524;17.580;2022-07-01T12:59:16;14.88;;;12.05;;
50739;SDS011;36704;52.524;17.580;2022-07-01T13:02:06;15.73;;;12.02;;
50739;SDS011;36704;52.524;17.580;2022-07-01T13:05:05;14.00;;;11.25;;
50739;SDS011;36704;52.524;17.580;2022-07-01T13:07:54;17.10;;;10.50;;
50739;SDS011;36704;52.524;17.580;2022-07-01T13:11:23;12.30;;;10.63;;
50739;SDS011;36704;52.524;17.580;2022-07-01T13:14:17;14.65;;;11.10;;
50739;SDS011;36704;52.524;17.580;2022-07-01T13:17:14;12.05;;;10.68;;
50739;SDS011;36704;52.524;17.580;2022-07-01T13:20:08;12.45;;;10.90;;
50739;SDS011;36704;52.524;17.580;2022-07-01T13:23:03;14.02;;;10.50;;
50739;SDS011;36704;52.524;17.580;2022-07-01T13:25:54;15.73;;;11.15;;
50739;SDS011;36704;52.524;17.580;2022-07-01T13:29:02;13.30;;;10.50;;
50739;SDS011;36704;52.524;17.580;2022-07-01T13:32:05;15.48;;;10.60;;
50739;SDS011;36704;52.524;17.580;2022-07-01T13:34:59;16.55;;;10.45;;
50739;SDS011;36704;52.524;17.580;2022-07-01T13:37:48;15.35;;;11.07;;
50739;SDS011;36704;52.524;17.580;2022-07-01T13:40:48;14.23;;;10.52;;
50739;SDS011;36704;52.524;17.580;2022-07-01T13:43:34;12.88;;;10.18;;
50739;SDS011;36704;52.524;17.580;2022-07-01T13:46:34;12.90;;;10.07;;
50739;SDS011;36704;52.524;17.580;2022-07-01T13:49:30;14.10;;;11.32;;
50739;SDS011;36704;52.524;17.580;2022-07-01T13:52:24;15.77;;;11.25;;
50739;SDS011;36704;52.524;17.580;2022-07-01T13:55:22;14.25;;;11.23;;
50739;SDS011;36704;52.524;17.580;2022-07-01T13:58:14;14.60;;;10.55;;
50739;SDS011;36704;52.524;17.580;2022-07-01T14:01:05;17.13;;;13.70;;
50739;SDS011;36704;52.524;17.580;2022-07-01T14:03:57;17.17;;;12.07;;
50739;SDS011;36704;52.524;17.580;2022-07-01T14:06:50;16.58;;;11.98;;
50739;SDS011;36704;52.524;17.580;2022-07-01T14:09:39;17.65;;;11.88;;
50739;SDS011;36704;52.524;17.580;2022-07-01T14:12:28;17.30;;;11.30;;
50739;SDS011;36704;52.524;17.580;2022-07-01T14:15:16;12.55;;;10.20;;
50739;SDS011;36704;52.524;17.580;2022-07-01T14:18:10;15.45;;;10.70;;
50739;SDS011;36704;52.524;17.580;2022-07-01T14:21:04;16.58;;;11.27;;
50739;SDS011;36704;52.524;17.580;2022-07-01T14:23:58;16.13;;;11.23;;
50739;SDS011;36704;52.524;17.580;2022-07-01T14:26:57;15.32;;;11.50;;
50739;SDS011;36704;52.524;17.580;2022-07-01T14:29:50;14.60;;;11.65;;
50739;SDS011;36704;52.524;17.580;2022-07-01T14:32:47;17.95;;;10.70;;
50739;SDS011;36704;52.524;17.580;2022-07-01T14:35:47;18.25;;;11.43;;
50739;SDS011;36704;52.524;17.580;2022-07-01T14:38:42;26.27;;;11.90;;
50739;SDS011;36704;52.524;17.580;2022-07-01T14:41:31;20.27;;;11.98;;
50739;SDS011;36704;52.524;17.580;2022-07-01T14:44:20;27.90;;;13.85;;
50739;SDS011;36704;52.524;17.580;2022-07-01T14:47:10;22.50;;;14.05;;
50739;SDS011;36704;52.524;17.580;2022-07-01T14:50:05;16.00;;;11.95;;
50739;SDS011;36704;52.524;17.580;2022-07-01T14:53:07;20.05;;;14.25;;
50739;SDS011;36704;52.524;17.580;2022-07-01T14:56:12;17.67;;;12.52;;
50739;SDS011;36704;52.524;17.580;2022-07-01T14:59:07;19.52;;;12.88;;
50739;SDS011;36704;52.524;17.580;2022-07-01T15:05:51;18.42;;;14.23;;
50739;SDS011;36704;52.524;17.580;2022-07-01T15:08:42;17.80;;;13.60;;
50739;SDS011;36704;52.524;17.580;2022-07-01T15:11:37;19.25;;;17.23;;
50739;SDS011;36704;52.524;17.580;2022-07-01T15:14:38;21.85;;;16.23;;
50739;SDS011;36704;52.524;17.580;2022-07-01T15:17:42;21.15;;;16.10;;
50739;SDS011;36704;52.524;17.580;2022-07-01T15:20:35;20.23;;;16.52;;
50739;SDS011;36704;52.524;17.580;2022-07-01T15:23:33;18.83;;;14.18;;
50739;SDS011;36704;52.524;17.580;2022-07-01T15:26:25;18.65;;;13.90;;
50739;SDS011;36704;52.524;17.580;2022-07-01T15:29:14;18.45;;;14.02;;
50739;SDS011;36704;52.524;17.580;2022-07-01T15:32:15;19.73;;;13.70;;
50739;SDS011;36704;52.524;17.580;2022-07-01T15:35:09;17.55;;;12.95;;
50739;SDS011;36704;52.524;17.580;2022-07-01T15:38:03;16.92;;;10.18;;
50739;SDS011;36704;52.524;17.580;2022-07-01T15:40:56;11.90;;;8.85;;
50739;SDS011;36704;52.524;17.580;2022-07-01T15:43:54;8.75;;;6.35;;
50739;SDS011;36704;52.524;17.580;2022-07-01T15:46:57;6.45;;;5.57;;
50739;SDS011;36704;52.524;17.580;2022-07-01T15:50:14;10.85;;;7.25;;
50739;SDS011;36704;52.524;17.580;2022-07-01T15:53:09;12.18;;;8.75;;
50739;SDS011;36704;52.524;17.580;2022-07-01T15:59:03;12.73;;;9.65;;
50739;SDS011;36704;52.524;17.580;2022-07-01T16:01:59;15.15;;;10.32;;
50739;SDS011;36704;52.524;17.580;2022-07-01T16:05:07;13.15;;;9.52;;
50739;SDS011;36704;52.524;17.580;2022-07-01T16:08:24;15.20;;;10.40;;
50739;SDS011;36704;52.524;17.580;2022-07-01T16:11:43;14.30;;;10.00;;
50739;SDS011;36704;52.524;17.580;2022-07-01T16:14:41;14.15;;;9.38;;
50739;SDS011;36704;52.524;17.580;2022-07-01T16:17:49;17.15;;;10.00;;
50739;SDS011;36704;52.524;17.580;2022-07-01T16:20:48;15.63;;;11.10;;
50739;SDS011;36704;52.524;17.580;2022-07-01T16:23:45;12.35;;;9.95;;
50739;SDS011;36704;52.524;17.580;2022-07-01T16:26:37;13.02;;;10.85;;
50739;SDS011;36704;52.524;17.580;2022-07-01T16:29:41;12.05;;;10.18;;
50739;SDS011;36704;52.524;17.580;2022-07-01T16:32:36;12.68;;;10.25;;
50739;SDS011;36704;52.524;17.580;2022-07-01T16:35:48;12.48;;;8.95;;
50739;SDS011;36704;52.524;17.580;2022-07-01T16:39:05;11.50;;;10.10;;
50739;SDS011;36704;52.524;17.580;2022-07-01T16:42:16;13.70;;;9.63;;
50739;SDS011;36704;52.524;17.580;2022-07-01T16:45:10;13.27;;;9.95;;
50739;SDS011;36704;52.524;17.580;2022-07-01T16:48:21;11.75;;;9.52;;
50739;SDS011;36704;52.524;17.580;2022-07-01T16:51:30;16.70;;;11.55;;
50739;SDS011;36704;52.524;17.580;2022-07-01T16:54:30;14.10;;;9.63;;
50739;SDS011;36704;52.524;17.580;2022-07-01T16:57:25;11.20;;;9.40;;
50739;SDS011;36704;52.524;17.580;2022-07-01T17:00:25;15.32;;;10.18;;
50739;SDS011;36704;52.524;17.580;2022-07-01T17:03:21;15.95;;;10.88;;
50739;SDS011;36704;52.524;17.580;2022-07-01T17:06:29;14.32;;;10.73;;
50739;SDS011;36704;52.524;17.580;2022-07-01T17:09:34;15.05;;;10.88;;
50739;SDS011;36704;52.524;17.580;2022-07-01T17:12:37;11.63;;;9.95;;
50739;SDS011;36704;52.524;17.580;2022-07-01T17:15:44;14.77;;;9.82;;
50739;SDS011;36704;52.524;17.580;2022-07-01T17:18:53;16.25;;;13.57;;
50739;SDS011;36704;52.524;17.580;2022-07-01T17:21:54;14.98;;;9.57;;
50739;SDS011;36704;52.524;17.580;2022-07-01T17:25:06;14.35;;;10.30;;
50739;SDS011;36704;52.524;17.580;2022-07-01T17:31:35;12.73;;;10.25;;
50739;SDS011;36704;52.524;17.580;2022-07-01T17:34:32;10.68;;;9.10;;
50739;SDS011;36704;52.524;17.580;2022-07-01T17:37:35;11.52;;;9.32;;
50739;SDS011;36704;52.524;17.580;2022-07-01T17:40:26;11.07;;;8.95;;
50739;SDS011;36704;52.524;17.580;2022-07-01T17:43:36;12.93;;;9.05;;
50739;SDS011;36704;52.524;17.580;2022-07-01T17:46:46;10.13;;;8.20;;
50739;SDS011;36704;52.524;17.580;2022-07-01T17:49:53;13.13;;;8.10;;
50739;SDS011;36704;52.524;17.580;2022-07-01T17:52:50;10.95;;;8.43;;
50739;SDS011;36704;52.524;17.580;2022-07-01T17:56:51;9.85;;;8.55;;
50739;SDS011;36704;52.524;17.580;2022-07-01T18:00:57;8.52;;;7.55;;
50739;SDS011;36704;52.524;17.580;2022-07-01T18:04:33;10.90;;;8.55;;